sensor_id;sensor_type;location;lat;lon;timestamp;pressure;altitude;pressure_sealevel;temperature;humidity
56400;BME280;42298;53.638;9.876;2024-01-16T00:01:04;99520.06;;;0.44;100.00
56400;BME280;42298;53.638;9.876;2024-01-16T00:03:30;99498.06;;;0.47;100.00
56400;BME280;42298;53.638;9.876;2024-01-16T00:05:55;99488.63;;;0.44;100.00
56400;BME280;42298;53.638;9.876;2024-01-16T00:08:20;99476.44;;;0.33;100.00
56400;BME280;42298;53.638;9.876;2024-01-16T00:10:46;99465.59;;;0.38;100.00
56400;BME280;42298;53.638;9.876;2024-01-16T00:13:11;99452.34;;;0.39;100.00
56400;BME280;42298;53.638;9.876;2024-01-16T00:15:37;99447.38;;;0.36;100.00
56400;BME280;42298;53.638;9.876;2024-01-16T00:18:02;99456.06;;;0.37;100.00
56400;BME280;42298;53.638;9.876;2024-01-16T00:20:27;99454.97;;;0.39;100.00
56400;BME280;42298;53.638;9.876;2024-01-16T00:22:53;99460.41;;;0.48;100.00
56400;BME280;42298;53.638;9.876;2024-01-16T00:25:20;99473.13;;;0.52;100.00
56400;BME280;42298;53.638;9.876;2024-01-16T00:27:45;99470.22;;;0.55;100.00
56400;BME280;42298;53.638;9.876;2024-01-16T00:30:11;99466.94;;;0.53;100.00
56400;BME280;42298;53.638;9.876;2024-01-16T00:32:37;99460.84;;;0.53;100.00
56400;BME280;42298;53.638;9.876;2024-01-16T00:35:02;99464.44;;;0.52;100.00
56400;BME280;42298;53.638;9.876;2024-01-16T00:37:29;99460.34;;;0.59;100.00
56400;BME280;42298;53.638;9.876;2024-01-16T00:39:54;99460.94;;;0.63;100.00
56400;BME280;42298;53.638;9.876;2024-01-16T00:42:19;99438.25;;;0.52;100.00
56400;BME280;42298;53.638;9.876;2024-01-16T00:44:45;99424.69;;;0.47;100.00
56400;BME280;42298;53.638;9.876;2024-01-16T00:47:10;99428.00;;;0.49;100.00
56400;BME280;42298;53.638;9.876;2024-01-16T00:49:35;99432.88;;;0.53;100.00
56400;BME280;42298;53.638;9.876;2024-01-16T00:52:01;99447.25;;;0.59;100.00
56400;BME280;42298;53.638;9.876;2024-01-16T00:54:27;99433.81;;;0.52;100.00
56400;BME280;42298;53.638;9.876;2024-01-16T00:56:52;99429.16;;;0.56;100.00
56400;BME280;42298;53.638;9.876;2024-01-16T00:59:20;99422.13;;;0.56;100.00
56400;BME280;42298;53.638;9.876;2024-01-16T01:01:46;99427.69;;;0.63;100.00
56400;BME280;42298;53.638;9.876;2024-01-16T01:04:11;99432.22;;;0.61;100.00
56400;BME280;42298;53.638;9.876;2024-01-16T01:06:36;99449.34;;;0.65;100.00
56400;BME280;42298;53.638;9.876;2024-01-16T01:09:02;99435.53;;;0.63;100.00
56400;BME280;42298;53.638;9.876;2024-01-16T01:11:28;99431.72;;;0.67;100.00
56400;BME280;42298;53.638;9.876;2024-01-16T01:13:53;99422.31;;;0.65;100.00
56400;BME280;42298;53.638;9.876;2024-01-16T01:16:18;99414.06;;;0.69;100.00
56400;BME280;42298;53.638;9.876;2024-01-16T01:18:44;99403.41;;;0.61;100.00
56400;BME280;42298;53.638;9.876;2024-01-16T01:21:10;99397.75;;;0.66;100.00
56400;BME280;42298;53.638;9.876;2024-01-16T01:23:36;99378.59;;;0.65;100.00
56400;BME280;42298;53.638;9.876;2024-01-16T01:26:01;99377.91;;;0.63;100.00
56400;BME280;42298;53.638;9.876;2024-01-16T01:28:28;99382.16;;;0.64;100.00
56400;BME280;42298;53.638;9.876;2024-01-16T01:30:54;99376.50;;;0.59;100.00
56400;BME280;42298;53.638;9.876;2024-01-16T01:33:20;99389.91;;;0.66;100.00
56400;BME280;42298;53.638;9.876;2024-01-16T01:35:45;99390.72;;;0.66;100.00
56400;BME280;42298;53.638;9.876;2024-01-16T01:38:11;99391.44;;;0.68;100.00
56400;BME280;42298;53.638;9.876;2024-01-16T01:40:36;99392.84;;;0.72;100.00
56400;BME280;42298;53.638;9.876;2024-01-16T01:43:18;99379.59;;;0.74;100.00
56400;BME280;42298;53.638;9.876;2024-01-16T01:46:02;99359.06;;;0.79;100.00
56400;BME280;42298;53.638;9.876;2024-01-16T01:48:32;99354.41;;;0.82;100.00
56400;BME280;42298;53.638;9.876;2024-01-16T01:50:59;99349.88;;;0.85;100.00
56400;BME280;42298;53.638;9.876;2024-01-16T01:53:25;99346.97;;;0.88;100.00
56400;BME280;42298;53.638;9.876;2024-01-16T01:55:50;99335.34;;;0.80;100.00
56400;BME280;42298;53.638;9.876;2024-01-16T01:58:16;99323.03;;;0.71;100.00
56400;BME280;42298;53.638;9.876;2024-01-16T02:03:24;99307.25;;;0.61;100.00
56400;BME280;42298;53.638;9.876;2024-01-16T02:05:52;99325.22;;;0.66;100.00
56400;BME280;42298;53.638;9.876;2024-01-16T02:08:17;99315.97;;;0.62;100.00
56400;BME280;42298;53.638;9.876;2024-01-16T02:10:45;99320.88;;;0.55;100.00
56400;BME280;42298;53.638;9.876;2024-01-16T02:13:12;99324.75;;;0.51;100.00
56400;BME280;42298;53.638;9.876;2024-01-16T02:15:38;99339.63;;;0.51;100.00
56400;BME280;42298;53.638;9.876;2024-01-16T02:18:06;99322.88;;;0.42;100.00
56400;BME280;42298;53.638;9.876;2024-01-16T02:20:33;99332.69;;;0.40;100.00
56400;BME280;42298;53.638;9.876;2024-01-16T02:23:03;99362.06;;;0.44;100.00
56400;BME280;42298;53.638;9.876;2024-01-16T02:25:29;99379.56;;;0.43;100.00
56400;BME280;42298;53.638;9.876;2024-01-16T02:27:54;99393.78;;;0.40;100.00
56400;BME280;42298;53.638;9.876;2024-01-16T02:30:19;99399.25;;;0.37;100.00
56400;BME280;42298;53.638;9.876;2024-01-16T02:32:45;99399.78;;;0.31;100.00
56400;BME280;42298;53.638;9.876;2024-01-16T02:35:11;99415.34;;;0.33;100.00
56400;BME280;42298;53.638;9.876;2024-01-16T02:37:36;99434.53;;;0.33;100.00
56400;BME280;42298;53.638;9.876;2024-01-16T02:40:03;99453.81;;;0.32;100.00
56400;BME280;42298;53.638;9.876;2024-01-16T02:42:32;99471.22;;;0.33;100.00
56400;BME280;42298;53.638;9.876;2024-01-16T02:44:57;99469.47;;;0.23;100.00
56400;BME280;42298;53.638;9.876;2024-01-16T02:47:22;99490.59;;;0.31;100.00
56400;BME280;42298;53.638;9.876;2024-01-16T02:49:48;99494.19;;;0.30;100.00
56400;BME280;42298;53.638;9.876;2024-01-16T02:52:13;99506.69;;;0.26;100.00
56400;BME280;42298;53.638;9.876;2024-01-16T02:54:38;99533.13;;;0.23;100.00
56400;BME280;42298;53.638;9.876;2024-01-16T02:57:04;99523.41;;;0.14;100.00
56400;BME280;42298;53.638;9.876;2024-01-16T02:59:30;99537.81;;;0.08;100.00
56400;BME280;42298;53.638;9.876;2024-01-16T03:01:55;99569.84;;;0.12;100.00
56400;BME280;42298;53.638;9.876;2024-01-16T03:04:21;99562.91;;;0.11;100.00
56400;BME280;42298;53.638;9.876;2024-01-16T03:06:46;99600.19;;;0.14;100.00
56400;BME280;42298;53.638;9.876;2024-01-16T03:09:11;99596.13;;;0.10;100.00
56400;BME280;42298;53.638;9.876;2024-01-16T03:11:37;99619.09;;;0.18;100.00
56400;BME280;42298;53.638;9.876;2024-01-16T03:14:02;99636.00;;;0.14;100.00
56400;BME280;42298;53.638;9.876;2024-01-16T03:16:28;99639.09;;;0.08;100.00
56400;BME280;42298;53.638;9.876;2024-01-16T03:18:54;99643.75;;;0.04;100.00
56400;BME280;42298;53.638;9.876;2024-01-16T03:21:19;99639.94;;;-0.03;100.00
56400;BME280;42298;53.638;9.876;2024-01-16T03:23:44;99649.22;;;-0.10;100.00
56400;BME280;42298;53.638;9.876;2024-01-16T03:26:13;99676.69;;;-0.05;100.00
56400;BME280;42298;53.638;9.876;2024-01-16T03:28:39;99705.53;;;0.07;100.00
56400;BME280;42298;53.638;9.876;2024-01-16T03:31:05;99721.94;;;0.09;100.00
56400;BME280;42298;53.638;9.876;2024-01-16T03:33:30;99729.78;;;0.09;100.00
56400;BME280;42298;53.638;9.876;2024-01-16T03:35:55;99741.94;;;0.10;100.00
56400;BME280;42298;53.638;9.876;2024-01-16T03:38:21;99751.59;;;0.09;100.00
56400;BME280;42298;53.638;9.876;2024-01-16T03:40:46;99785.03;;;0.17;100.00
56400;BME280;42298;53.638;9.876;2024-01-16T03:43:11;99793.97;;;0.14;100.00
56400;BME280;42298;53.638;9.876;2024-01-16T03:45:37;99810.88;;;0.22;100.00
56400;BME280;42298;53.638;9.876;2024-01-16T03:48:02;99834.34;;;0.23;100.00
56400;BME280;42298;53.638;9.876;2024-01-16T03:50:28;99835.25;;;0.22;100.00
56400;BME280;42298;53.638;9.876;2024-01-16T03:52:54;99829.56;;;0.17;100.00
56400;BME280;42298;53.638;9.876;2024-01-16T03:55:19;99828.00;;;0.14;100.00
56400;BME280;42298;53.638;9.876;2024-01-16T03:57:44;99841.94;;;0.15;100.00
56400;BME280;42298;53.638;9.876;2024-01-16T04:00:11;99850.41;;;0.18;100.00
56400;BME280;42298;53.638;9.876;2024-01-16T04:02:38;99898.41;;;0.41;100.00
56400;BME280;42298;53.638;9.876;2024-01-16T04:05:04;99909.88;;;0.40;100.00
56400;BME280;42298;53.638;9.876;2024-01-16T04:07:29;99901.63;;;0.34;100.00
56400;BME280;42298;53.638;9.876;2024-01-16T04:09:55;99919.50;;;0.40;100.00
56400;BME280;42298;53.638;9.876;2024-01-16T04:12:20;99904.84;;;0.37;100.00
56400;BME280;42298;53.638;9.876;2024-01-16T04:14:45;99902.84;;;0.41;100.00
56400;BME280;42298;53.638;9.876;2024-01-16T04:17:11;99904.63;;;0.40;100.00
56400;BME280;42298;53.638;9.876;2024-01-16T04:19:36;99905.34;;;0.43;100.00
56400;BME280;42298;53.638;9.876;2024-01-16T04:22:01;99920.81;;;0.46;100.00
56400;BME280;42298;53.638;9.876;2024-01-16T04:24:27;99893.41;;;0.38;100.00
56400;BME280;42298;53.638;9.876;2024-01-16T04:26:53;99848.88;;;0.27;100.00
56400;BME280;42298;53.638;9.876;2024-01-16T04:29:18;99826.72;;;0.20;100.00
56400;BME280;42298;53.638;9.876;2024-01-16T04:31:43;99794.31;;;0.10;100.00
56400;BME280;42298;53.638;9.876;2024-01-16T04:34:09;99778.34;;;0.02;100.00
56400;BME280;42298;53.638;9.876;2024-01-16T04:36:34;99773.09;;;0.02;100.00
56400;BME280;42298;53.638;9.876;2024-01-16T04:39:00;99767.75;;;-0.08;100.00
56400;BME280;42298;53.638;9.876;2024-01-16T04:41:25;99766.78;;;-0.07;100.00
56400;BME280;42298;53.638;9.876;2024-01-16T04:43:50;99755.34;;;-0.17;100.00
56400;BME280;42298;53.638;9.876;2024-01-16T04:46:16;99768.19;;;-0.14;100.00
56400;BME280;42298;53.638;9.876;2024-01-16T04:48:42;99766.53;;;-0.15;100.00
56400;BME280;42298;53.638;9.876;2024-01-16T04:51:07;99766.88;;;-0.20;100.00
56400;BME280;42298;53.638;9.876;2024-01-16T04:53:33;99771.28;;;-0.21;100.00
56400;BME280;42298;53.638;9.876;2024-01-16T04:55:58;99775.44;;;-0.18;100.00
56400;BME280;42298;53.638;9.876;2024-01-16T04:58:24;99790.31;;;-0.18;100.00
56400;BME280;42298;53.638;9.876;2024-01-16T05:00:49;99784.25;;;-0.19;100.00
56400;BME280;42298;53.638;9.876;2024-01-16T05:03:14;99787.44;;;-0.27;100.00
56400;BME280;42298;53.638;9.876;2024-01-16T05:05:40;99803.63;;;-0.22;100.00
56400;BME280;42298;53.638;9.876;2024-01-16T05:08:06;99817.44;;;-0.19;100.00
56400;BME280;42298;53.638;9.876;2024-01-16T05:10:31;99844.78;;;-0.24;100.00
56400;BME280;42298;53.638;9.876;2024-01-16T05:12:56;99857.06;;;-0.24;100.00
56400;BME280;42298;53.638;9.876;2024-01-16T05:15:22;99890.13;;;-0.23;100.00
56400;BME280;42298;53.638;9.876;2024-01-16T05:17:47;99929.88;;;-0.18;100.00
56400;BME280;42298;53.638;9.876;2024-01-16T05:20:12;99952.50;;;-0.17;100.00
56400;BME280;42298;53.638;9.876;2024-01-16T05:22:38;99981.28;;;-0.17;100.00
56400;BME280;42298;53.638;9.876;2024-01-16T05:25:04;100014.81;;;-0.22;100.00
56400;BME280;42298;53.638;9.876;2024-01-16T05:27:32;100044.22;;;-0.18;100.00
56400;BME280;42298;53.638;9.876;2024-01-16T05:29:57;100093.84;;;-0.17;100.00
56400;BME280;42298;53.638;9.876;2024-01-16T05:32:23;100153.72;;;-0.12;100.00
56400;BME280;42298;53.638;9.876;2024-01-16T05:34:48;100213.09;;;-0.13;100.00
56400;BME280;42298;53.638;9.876;2024-01-16T05:37:13;100218.03;;;-0.21;100.00
56400;BME280;42298;53.638;9.876;2024-01-16T05:39:39;100288.16;;;-0.13;100.00
56400;BME280;42298;53.638;9.876;2024-01-16T05:42:04;100335.59;;;-0.18;100.00
56400;BME280;42298;53.638;9.876;2024-01-16T05:44:30;100376.56;;;-0.17;100.00
56400;BME280;42298;53.638;9.876;2024-01-16T05:46:55;100418.22;;;-0.14;100.00
56400;BME280;42298;53.638;9.876;2024-01-16T05:49:20;100463.56;;;-0.13;100.00
56400;BME280;42298;53.638;9.876;2024-01-16T05:51:46;100504.34;;;-0.09;100.00
56400;BME280;42298;53.638;9.876;2024-01-16T05:54:13;100573.91;;;-0.05;100.00
56400;BME280;42298;53.638;9.876;2024-01-16T05:56:40;100596.63;;;-0.06;100.00
56400;BME280;42298;53.638;9.876;2024-01-16T05:59:05;100634.78;;;-0.02;100.00
56400;BME280;42298;53.638;9.876;2024-01-16T06:01:32;100670.41;;;0.01;100.00
56400;BME280;42298;53.638;9.876;2024-01-16T06:03:58;100690.53;;;0.01;100.00
56400;BME280;42298;53.638;9.876;2024-01-16T06:06:25;100695.94;;;-0.03;100.00
56400;BME280;42298;53.638;9.876;2024-01-16T06:08:50;100708.03;;;0.00;100.00
56400;BME280;42298;53.638;9.876;2024-01-16T06:11:16;100736.56;;;0.05;100.00
56400;BME280;42298;53.638;9.876;2024-01-16T06:13:43;100756.75;;;0.03;100.00
56400;BME280;42298;53.638;9.876;2024-01-16T06:16:09;100766.13;;;0.07;100.00
56400;BME280;42298;53.638;9.876;2024-01-16T06:18:35;100790.72;;;0.18;100.00
56400;BME280;42298;53.638;9.876;2024-01-16T06:21:01;100819.34;;;0.22;100.00
56400;BME280;42298;53.638;9.876;2024-01-16T06:23:26;100820.28;;;0.20;100.00
56400;BME280;42298;53.638;9.876;2024-01-16T06:25:52;100819.69;;;0.15;100.00
56400;BME280;42298;53.638;9.876;2024-01-16T06:28:17;100807.63;;;0.13;100.00
56400;BME280;42298;53.638;9.876;2024-01-16T06:30:42;100831.78;;;0.18;100.00
56400;BME280;42298;53.638;9.876;2024-01-16T06:33:08;100860.13;;;0.26;100.00
56400;BME280;42298;53.638;9.876;2024-01-16T06:35:33;100862.09;;;0.22;100.00
56400;BME280;42298;53.638;9.876;2024-01-16T06:37:58;100896.81;;;0.26;100.00
56400;BME280;42298;53.638;9.876;2024-01-16T06:40:23;100902.91;;;0.26;100.00
56400;BME280;42298;53.638;9.876;2024-01-16T06:42:49;100894.47;;;0.21;100.00
56400;BME280;42298;53.638;9.876;2024-01-16T06:45:14;100883.03;;;0.22;100.00
56400;BME280;42298;53.638;9.876;2024-01-16T06:47:41;100899.63;;;0.23;100.00
56400;BME280;42298;53.638;9.876;2024-01-16T06:50:08;100872.84;;;0.17;100.00
56400;BME280;42298;53.638;9.876;2024-01-16T06:52:33;100934.47;;;0.39;100.00
56400;BME280;42298;53.638;9.876;2024-01-16T06:54:58;100975.38;;;0.41;100.00
56400;BME280;42298;53.638;9.876;2024-01-16T06:57:23;101008.34;;;0.46;100.00
56400;BME280;42298;53.638;9.876;2024-01-16T06:59:49;101016.19;;;0.46;100.00
56400;BME280;42298;53.638;9.876;2024-01-16T07:02:14;101032.25;;;0.39;100.00
56400;BME280;42298;53.638;9.876;2024-01-16T07:04:40;101037.44;;;0.41;100.00
56400;BME280;42298;53.638;9.876;2024-01-16T07:07:05;101036.00;;;0.35;100.00
56400;BME280;42298;53.638;9.876;2024-01-16T07:09:31;101040.13;;;0.39;100.00
56400;BME280;42298;53.638;9.876;2024-01-16T07:11:56;101048.19;;;0.36;100.00
56400;BME280;42298;53.638;9.876;2024-01-16T07:14:22;101072.34;;;0.41;100.00
56400;BME280;42298;53.638;9.876;2024-01-16T07:16:47;101047.06;;;0.40;100.00
56400;BME280;42298;53.638;9.876;2024-01-16T07:19:12;101017.91;;;0.31;100.00
56400;BME280;42298;53.638;9.876;2024-01-16T07:21:38;100990.31;;;0.25;100.00
56400;BME280;42298;53.638;9.876;2024-01-16T07:24:04;101020.88;;;0.40;100.00
56400;BME280;42298;53.638;9.876;2024-01-16T07:26:29;101033.97;;;0.40;100.00
56400;BME280;42298;53.638;9.876;2024-01-16T07:28:55;101045.38;;;0.39;100.00
56400;BME280;42298;53.638;9.876;2024-01-16T07:31:20;101048.66;;;0.43;100.00
56400;BME280;42298;53.638;9.876;2024-01-16T07:33:45;101051.56;;;0.38;100.00
56400;BME280;42298;53.638;9.876;2024-01-16T07:36:11;101008.63;;;0.25;100.00
56400;BME280;42298;53.638;9.876;2024-01-16T07:38:37;101027.56;;;0.30;100.00
56400;BME280;42298;53.638;9.876;2024-01-16T07:41:02;101052.66;;;0.34;100.00
56400;BME280;42298;53.638;9.876;2024-01-16T07:43:28;101063.06;;;0.36;100.00
56400;BME280;42298;53.638;9.876;2024-01-16T07:45:55;101050.72;;;0.22;100.00
56400;BME280;42298;53.638;9.876;2024-01-16T07:48:20;101072.94;;;0.31;100.00
56400;BME280;42298;53.638;9.876;2024-01-16T07:50:47;101070.56;;;0.26;100.00
56400;BME280;42298;53.638;9.876;2024-01-16T07:53:13;101076.91;;;0.22;100.00
56400;BME280;42298;53.638;9.876;2024-01-16T07:55:39;101063.16;;;0.18;100.00
56400;BME280;42298;53.638;9.876;2024-01-16T07:58:04;101084.97;;;0.19;100.00
56400;BME280;42298;53.638;9.876;2024-01-16T08:00:30;101109.13;;;0.24;100.00
56400;BME280;42298;53.638;9.876;2024-01-16T08:02:56;101125.59;;;0.26;100.00
56400;BME280;42298;53.638;9.876;2024-01-16T08:05:21;101135.81;;;0.31;100.00
56400;BME280;42298;53.638;9.876;2024-01-16T08:07:50;101132.38;;;0.30;100.00
56400;BME280;42298;53.638;9.876;2024-01-16T08:10:16;101122.31;;;0.23;100.00
56400;BME280;42298;53.638;9.876;2024-01-16T08:12:41;101131.53;;;0.30;100.00
56400;BME280;42298;53.638;9.876;2024-01-16T08:15:07;101160.28;;;0.31;100.00
56400;BME280;42298;53.638;9.876;2024-01-16T08:17:33;101188.66;;;0.39;100.00
56400;BME280;42298;53.638;9.876;2024-01-16T08:19:59;101182.06;;;0.32;100.00
56400;BME280;42298;53.638;9.876;2024-01-16T08:22:24;101188.84;;;0.36;100.00
56400;BME280;42298;53.638;9.876;2024-01-16T08:24:49;101184.50;;;0.35;100.00
56400;BME280;42298;53.638;9.876;2024-01-16T08:27:15;101189.88;;;0.33;100.00
56400;BME280;42298;53.638;9.876;2024-01-16T08:29:42;101207.97;;;0.38;100.00
56400;BME280;42298;53.638;9.876;2024-01-16T08:32:07;101225.44;;;0.37;100.00
56400;BME280;42298;53.638;9.876;2024-01-16T08:34:32;101212.94;;;0.27;100.00
56400;BME280;42298;53.638;9.876;2024-01-16T08:36:58;101252.75;;;0.33;100.00
56400;BME280;42298;53.638;9.876;2024-01-16T08:39:23;101278.78;;;0.36;100.00
56400;BME280;42298;53.638;9.876;2024-01-16T08:41:53;101318.09;;;0.36;100.00
56400;BME280;42298;53.638;9.876;2024-01-16T08:44:18;101323.66;;;0.30;100.00
56400;BME280;42298;53.638;9.876;2024-01-16T08:46:43;101335.66;;;0.34;100.00
56400;BME280;42298;53.638;9.876;2024-01-16T08:49:09;101341.22;;;0.28;100.00
56400;BME280;42298;53.638;9.876;2024-01-16T08:51:36;101368.06;;;0.33;100.00
56400;BME280;42298;53.638;9.876;2024-01-16T08:54:02;101417.19;;;0.46;100.00
56400;BME280;42298;53.638;9.876;2024-01-16T08:56:27;101423.38;;;0.45;100.00
56400;BME280;42298;53.638;9.876;2024-01-16T08:58:53;101431.31;;;0.43;100.00
56400;BME280;42298;53.638;9.876;2024-01-16T09:01:18;101468.38;;;0.53;100.00
56400;BME280;42298;53.638;9.876;2024-01-16T09:03:43;101467.78;;;0.48;100.00
56400;BME280;42298;53.638;9.876;2024-01-16T09:06:09;101496.06;;;0.58;100.00
56400;BME280;42298;53.638;9.876;2024-01-16T09:08:35;101522.75;;;0.67;100.00
56400;BME280;42298;53.638;9.876;2024-01-16T09:11:00;101519.28;;;0.66;100.00
56400;BME280;42298;53.638;9.876;2024-01-16T09:13:27;101503.63;;;0.65;100.00
56400;BME280;42298;53.638;9.876;2024-01-16T09:15:52;101497.38;;;0.67;100.00
56400;BME280;42298;53.638;9.876;2024-01-16T09:18:18;101469.78;;;0.60;100.00
56400;BME280;42298;53.638;9.876;2024-01-16T09:20:43;101476.25;;;0.70;100.00
56400;BME280;42298;53.638;9.876;2024-01-16T09:23:09;101464.84;;;0.71;100.00
56400;BME280;42298;53.638;9.876;2024-01-16T09:25:35;101467.22;;;0.76;100.00
56400;BME280;42298;53.638;9.876;2024-01-16T09:28:01;101479.69;;;0.88;100.00
56400;BME280;42298;53.638;9.876;2024-01-16T09:30:26;101491.03;;;0.89;100.00
56400;BME280;42298;53.638;9.876;2024-01-16T09:32:53;101481.38;;;0.89;100.00
56400;BME280;42298;53.638;9.876;2024-01-16T09:35:18;101464.63;;;0.92;100.00
56400;BME280;42298;53.638;9.876;2024-01-16T09:37:43;101425.53;;;0.87;100.00
56400;BME280;42298;53.638;9.876;2024-01-16T09:40:09;101380.25;;;0.83;100.00
56400;BME280;42298;53.638;9.876;2024-01-16T09:42:35;101358.94;;;0.90;100.00
56400;BME280;42298;53.638;9.876;2024-01-16T09:45:01;101325.09;;;0.85;100.00
56400;BME280;42298;53.638;9.876;2024-01-16T09:47:29;101303.03;;;0.89;100.00
56400;BME280;42298;53.638;9.876;2024-01-16T09:49:57;101264.03;;;0.83;100.00
56400;BME280;42298;53.638;9.876;2024-01-16T09:52:22;101238.97;;;0.77;100.00
56400;BME280;42298;53.638;9.876;2024-01-16T09:54:48;101226.28;;;0.86;100.00
56400;BME280;42298;53.638;9.876;2024-01-16T09:57:14;101209.03;;;0.81;100.00
56400;BME280;42298;53.638;9.876;2024-01-16T09:59:41;101194.06;;;0.83;100.00
56400;BME280;42298;53.638;9.876;2024-01-16T10:02:10;101177.66;;;0.80;100.00
56400;BME280;42298;53.638;9.876;2024-01-16T10:04:35;101197.78;;;0.95;100.00
56400;BME280;42298;53.638;9.876;2024-01-16T10:07:01;101188.38;;;0.91;100.00
56400;BME280;42298;53.638;9.876;2024-01-16T10:09:27;101227.44;;;1.12;100.00
56400;BME280;42298;53.638;9.876;2024-01-16T10:11:53;101225.06;;;1.07;100.00
56400;BME280;42298;53.638;9.876;2024-01-16T10:14:19;101185.03;;;1.03;100.00
56400;BME280;42298;53.638;9.876;2024-01-16T10:17:04;101152.25;;;1.11;100.00
56400;BME280;42298;53.638;9.876;2024-01-16T10:19:51;101121.91;;;1.07;100.00
56400;BME280;42298;53.638;9.876;2024-01-16T10:22:21;101099.06;;;1.09;100.00
56400;BME280;42298;53.638;9.876;2024-01-16T10:24:48;101090.91;;;1.13;100.00
56400;BME280;42298;53.638;9.876;2024-01-16T10:27:15;101078.56;;;1.15;100.00
56400;BME280;42298;53.638;9.876;2024-01-16T10:30:00;101038.25;;;1.16;100.00
56400;BME280;42298;53.638;9.876;2024-01-16T10:32:27;101047.63;;;1.20;100.00
56400;BME280;42298;53.638;9.876;2024-01-16T10:35:14;101022.31;;;1.19;100.00
56400;BME280;42298;53.638;9.876;2024-01-16T10:37:50;101024.41;;;1.29;100.00
56400;BME280;42298;53.638;9.876;2024-01-16T10:40:21;101002.66;;;1.27;100.00
56400;BME280;42298;53.638;9.876;2024-01-16T10:42:57;100999.63;;;1.33;100.00
56400;BME280;42298;53.638;9.876;2024-01-16T10:45:23;100985.66;;;1.32;100.00
56400;BME280;42298;53.638;9.876;2024-01-16T10:48:15;100954.47;;;1.28;100.00
56400;BME280;42298;53.638;9.876;2024-01-16T10:50:41;100926.09;;;1.20;100.00
56400;BME280;42298;53.638;9.876;2024-01-16T10:53:07;100934.59;;;1.23;100.00
56400;BME280;42298;53.638;9.876;2024-01-16T10:55:50;100946.22;;;1.34;100.00
56400;BME280;42298;53.638;9.876;2024-01-16T10:58:17;100952.28;;;1.34;100.00
56400;BME280;42298;53.638;9.876;2024-01-16T11:00:50;100958.22;;;1.38;100.00
56400;BME280;42298;53.638;9.876;2024-01-16T11:03:19;101002.63;;;1.55;100.00
56400;BME280;42298;53.638;9.876;2024-01-16T11:05:50;100997.75;;;1.49;100.00
56400;BME280;42298;53.638;9.876;2024-01-16T11:08:16;100967.16;;;1.48;100.00
56400;BME280;42298;53.638;9.876;2024-01-16T11:10:42;100952.16;;;1.50;100.00
56400;BME280;42298;53.638;9.876;2024-01-16T11:13:09;100950.13;;;1.55;100.00
56400;BME280;42298;53.638;9.876;2024-01-16T11:15:37;100947.59;;;1.54;100.00
56400;BME280;42298;53.638;9.876;2024-01-16T11:18:04;100954.13;;;1.61;100.00
56400;BME280;42298;53.638;9.876;2024-01-16T11:20:30;100957.41;;;1.64;100.00
56400;BME280;42298;53.638;9.876;2024-01-16T11:22:57;100970.78;;;1.74;100.00
56400;BME280;42298;53.638;9.876;2024-01-16T11:25:31;100955.09;;;1.73;100.00
56400;BME280;42298;53.638;9.876;2024-01-16T11:28:11;100926.97;;;1.75;100.00
56400;BME280;42298;53.638;9.876;2024-01-16T11:30:37;100899.25;;;1.71;100.00
56400;BME280;42298;53.638;9.876;2024-01-16T11:33:02;100872.97;;;1.71;100.00
56400;BME280;42298;53.638;9.876;2024-01-16T11:35:33;100851.75;;;1.74;100.00
56400;BME280;42298;53.638;9.876;2024-01-16T11:38:13;100836.75;;;1.76;100.00
56400;BME280;42298;53.638;9.876;2024-01-16T11:40:41;100851.25;;;1.81;100.00
56400;BME280;42298;53.638;9.876;2024-01-16T11:45:57;100809.75;;;1.74;100.00
56400;BME280;42298;53.638;9.876;2024-01-16T11:48:24;100796.09;;;1.69;100.00
56400;BME280;42298;53.638;9.876;2024-01-16T11:50:50;100790.63;;;1.72;100.00
56400;BME280;42298;53.638;9.876;2024-01-16T11:53:32;100781.50;;;1.77;100.00
56400;BME280;42298;53.638;9.876;2024-01-16T12:01:19;100723.31;;;1.71;100.00
56400;BME280;42298;53.638;9.876;2024-01-16T12:04:01;100715.31;;;1.72;100.00
56400;BME280;42298;53.638;9.876;2024-01-16T12:06:26;100695.13;;;1.73;100.00
56400;BME280;42298;53.638;9.876;2024-01-16T12:08:52;100694.94;;;1.76;100.00
56400;BME280;42298;53.638;9.876;2024-01-16T12:11:20;100682.22;;;1.82;100.00
56400;BME280;42298;53.638;9.876;2024-01-16T12:14:01;100673.84;;;1.77;100.00
56400;BME280;42298;53.638;9.876;2024-01-16T12:16:26;100665.00;;;1.78;100.00
56400;BME280;42298;53.638;9.876;2024-01-16T12:19:09;100655.63;;;1.87;100.00
56400;BME280;42298;53.638;9.876;2024-01-16T12:21:39;100641.13;;;1.94;100.00
56400;BME280;42298;53.638;9.876;2024-01-16T12:24:05;100613.63;;;1.87;100.00
56400;BME280;42298;53.638;9.876;2024-01-16T12:26:31;100588.19;;;1.75;100.00
56400;BME280;42298;53.638;9.876;2024-01-16T12:28:57;100582.94;;;1.75;100.00
56400;BME280;42298;53.638;9.876;2024-01-16T12:31:23;100572.25;;;1.78;100.00
56400;BME280;42298;53.638;9.876;2024-01-16T12:33:52;100559.84;;;1.80;100.00
56400;BME280;42298;53.638;9.876;2024-01-16T12:36:18;100547.56;;;1.80;100.00
56400;BME280;42298;53.638;9.876;2024-01-16T12:38:43;100535.16;;;1.82;100.00
56400;BME280;42298;53.638;9.876;2024-01-16T12:41:10;100541.53;;;1.91;100.00
56400;BME280;42298;53.638;9.876;2024-01-16T12:43:36;100506.25;;;1.82;100.00
56400;BME280;42298;53.638;9.876;2024-01-16T12:46:04;100515.28;;;1.91;100.00
56400;BME280;42298;53.638;9.876;2024-01-16T12:48:31;100539.91;;;2.01;100.00
56400;BME280;42298;53.638;9.876;2024-01-16T12:51:03;100504.44;;;1.96;100.00
56400;BME280;42298;53.638;9.876;2024-01-16T12:53:29;100491.59;;;2.04;100.00
56400;BME280;42298;53.638;9.876;2024-01-16T12:55:59;100465.66;;;1.99;100.00
56400;BME280;42298;53.638;9.876;2024-01-16T12:58:25;100441.72;;;1.91;100.00
56400;BME280;42298;53.638;9.876;2024-01-16T13:00:53;100402.44;;;1.90;100.00